createdAt,value
2022-12-08T00:01:25.658Z,14.63
2022-12-08T00:07:01.601Z,15.20
2022-12-08T00:12:04.986Z,13.98
2022-12-08T00:17:09.950Z,14.70
2022-12-08T00:22:15.262Z,13.82
2022-12-08T00:27:18.216Z,15.18
2022-12-08T00:32:20.018Z,16.52
2022-12-08T00:37:21.951Z,16.50
2022-12-08T00:42:23.765Z,15.80
2022-12-08T00:47:25.502Z,16.88
2022-12-08T00:52:27.250Z,15.93
2022-12-08T00:57:29.043Z,18.55
2022-12-08T01:02:32.467Z,16.17
2022-12-08T01:07:34.275Z,18.55
2022-12-08T01:12:36.007Z,17.10
2022-12-08T01:17:38.274Z,17.60
2022-12-08T01:22:40.047Z,19.33
2022-12-08T01:27:41.782Z,18.23
2022-12-08T01:32:43.657Z,16.80
2022-12-08T01:37:45.570Z,19.52
2022-12-08T01:42:47.327Z,18.88
2022-12-08T01:47:51.481Z,16.50
2022-12-08T01:52:58.104Z,17.10
2022-12-08T01:58:05.491Z,17.50
2022-12-08T02:03:14.504Z,18.13
2022-12-08T02:08:16.926Z,17.42
2022-12-08T02:13:20.806Z,15.50
2022-12-08T02:18:35.110Z,16.65
2022-12-08T02:23:42.625Z,16.10
2022-12-08T02:29:18.967Z,16.23
2022-12-08T02:34:33.040Z,15.77
2022-12-08T02:39:52.861Z,19.38
2022-12-08T02:45:00.539Z,14.50
2022-12-08T02:50:02.813Z,15.60
2022-12-08T02:55:29.411Z,13.13
2022-12-08T03:00:40.934Z,14.32
2022-12-08T03:06:10.315Z,12.57
2022-12-08T03:11:20.435Z,12.65
2022-12-08T03:16:27.684Z,13.32
2022-12-08T03:21:31.514Z,12.85
2022-12-08T03:26:44.673Z,12.23
2022-12-08T03:31:53.926Z,10.98
2022-12-08T03:36:55.951Z,11.15
2022-12-08T03:41:57.694Z,10.82
2022-12-08T03:46:59.527Z,10.25
2022-12-08T03:52:01.291Z,9.48
2022-12-08T03:57:03.116Z,9.70
2022-12-08T04:02:04.898Z,8.95
2022-12-08T04:07:06.672Z,9.57
2022-12-08T04:12:11.527Z,8.73
2022-12-08T04:17:13.343Z,7.57
2022-12-08T04:22:15.115Z,9.27
2022-12-08T04:27:16.858Z,8.40
2022-12-08T04:32:18.660Z,8.00
2022-12-08T04:37:20.480Z,7.65
2022-12-08T04:42:22.221Z,8.48
2022-12-08T04:47:24.157Z,8.38
2022-12-08T04:52:26.096Z,8.45
2022-12-08T04:57:27.977Z,8.13
2022-12-08T05:02:29.776Z,9.05
2022-12-08T05:07:31.569Z,9.05
2022-12-08T05:12:33.697Z,9.18
2022-12-08T05:17:35.518Z,7.85
2022-12-08T05:22:37.427Z,9.18
2022-12-08T05:27:39.158Z,9.90
2022-12-08T05:32:40.991Z,12.60
2022-12-08T05:37:42.730Z,10.15
2022-12-08T05:42:44.554Z,10.90
2022-12-08T05:47:46.286Z,11.93
2022-12-08T05:52:48.046Z,12.50
2022-12-08T05:57:49.838Z,13.75
2022-12-08T06:02:51.768Z,14.50
2022-12-08T06:07:53.697Z,15.68
2022-12-08T06:12:55.495Z,17.80
2022-12-08T06:17:57.250Z,18.75
2022-12-08T06:22:59.046Z,18.63
2022-12-08T06:28:00.802Z,18.23
2022-12-08T06:33:02.580Z,17.73
2022-12-08T06:38:04.318Z,17.10
2022-12-08T06:43:06.129Z,15.98
2022-12-08T06:48:07.887Z,16.13
2022-12-08T06:53:13.025Z,14.38
2022-12-08T06:58:15.233Z,13.55
2022-12-08T07:03:17.042Z,11.73
2022-12-08T07:08:19.104Z,10.82
2022-12-08T07:13:20.887Z,11.18
2022-12-08T07:18:23.159Z,9.27
2022-12-08T07:23:24.894Z,10.02
2022-12-08T07:28:26.717Z,9.90
2022-12-08T07:33:28.457Z,9.80
2022-12-08T07:38:30.618Z,8.95
2022-12-08T07:43:32.385Z,9.05
2022-12-08T07:48:34.247Z,8.98
2022-12-08T07:53:36.214Z,8.63
2022-12-08T07:58:38.081Z,8.48
2022-12-08T08:03:40.011Z,7.72
2022-12-08T08:08:41.709Z,7.60
2022-12-08T08:13:43.426Z,6.75
2022-12-08T08:18:48.949Z,6.90
2022-12-08T08:23:50.670Z,5.95
2022-12-08T08:28:52.418Z,6.55
2022-12-08T08:33:54.308Z,5.82
2022-12-08T08:38:56.061Z,6.20
2022-12-08T08:43:57.960Z,5.63
2022-12-08T08:48:59.726Z,5.57
2022-12-08T08:54:01.808Z,6.57
2022-12-08T08:59:03.955Z,6.18
2022-12-08T09:04:05.884Z,5.93
2022-12-08T09:09:07.618Z,4.80
2022-12-08T09:14:17.346Z,5.00
2022-12-08T09:19:19.187Z,5.85
2022-12-08T09:24:20.948Z,3.30
2022-12-08T09:29:22.714Z,2.70
2022-12-08T09:34:24.618Z,2.90
2022-12-08T09:39:26.467Z,3.40
2022-12-08T09:44:57.253Z,2.90
2022-12-08T09:50:07.485Z,3.40
2022-12-08T09:55:19.646Z,4.07
2022-12-08T10:00:21.749Z,4.25
2022-12-08T10:05:25.771Z,4.20
2022-12-08T10:10:46.829Z,4.43
2022-12-08T10:16:17.604Z,4.60
2022-12-08T10:21:28.727Z,4.20
2022-12-08T10:26:32.715Z,5.43
2022-12-08T10:31:34.506Z,5.95
2022-12-08T10:36:58.643Z,5.40
2022-12-08T10:42:02.472Z,4.38
2022-12-08T10:47:13.268Z,4.30
2022-12-08T10:52:24.962Z,4.53
2022-12-08T10:57:26.763Z,4.60
2022-12-08T11:02:28.781Z,4.80
2022-12-08T11:07:30.670Z,4.75
2022-12-08T11:12:32.602Z,4.63
2022-12-08T11:17:39.594Z,5.47
2022-12-08T11:22:43.191Z,6.07
2022-12-08T11:27:48.166Z,6.00
2022-12-08T11:32:54.434Z,6.53
2022-12-08T11:38:19.850Z,6.10
2022-12-08T11:43:25.643Z,5.90
2022-12-08T11:48:32.396Z,5.03
2022-12-08T11:53:40.646Z,5.55
2022-12-08T11:58:47.192Z,5.10
2022-12-08T12:04:10.050Z,5.50
2022-12-08T12:09:33.807Z,4.90
2022-12-08T12:15:07.006Z,4.10
2022-12-08T12:20:23.325Z,4.20
2022-12-08T12:25:27.101Z,3.95
2022-12-08T12:30:48.740Z,4.20
2022-12-08T12:35:50.908Z,4.70
2022-12-08T12:41:00.428Z,6.20
2022-12-08T12:46:24.175Z,7.35
2022-12-08T12:51:45.325Z,10.52
2022-12-08T12:56:49.689Z,10.50
2022-12-08T13:01:55.654Z,7.75
2022-12-08T13:06:57.682Z,7.72
2022-12-08T13:12:08.631Z,7.93
2022-12-08T13:17:14.163Z,9.32
2022-12-08T13:22:53.146Z,11.00
2022-12-08T13:27:55.301Z,11.98
2022-12-08T13:33:18.067Z,11.63
2022-12-08T13:38:26.364Z,11.52
2022-12-08T13:44:50.804Z,11.98
2022-12-08T14:00:21.367Z,14.70
2022-12-08T14:05:47.565Z,14.27
2022-12-08T14:10:53.371Z,13.57
2022-12-08T14:15:55.344Z,12.65
2022-12-08T14:21:22.404Z,13.80
2022-12-08T14:26:24.289Z,14.57
2022-12-08T14:31:27.976Z,15.18
2022-12-08T14:36:30.324Z,14.95
2022-12-08T14:41:32.798Z,15.18
2022-12-08T14:46:34.571Z,14.35
2022-12-08T14:51:36.892Z,14.43
2022-12-08T14:56:42.298Z,14.27
2022-12-08T15:01:45.391Z,13.77
2022-12-08T15:06:50.778Z,13.38
2022-12-08T15:12:15.854Z,13.85
2022-12-08T15:17:35.368Z,13.23
2022-12-08T15:22:37.110Z,12.38
2022-12-08T15:27:49.801Z,11.32
2022-12-08T15:32:54.237Z,10.90
2022-12-08T15:37:56.277Z,10.38
2022-12-08T15:42:58.167Z,9.32
2022-12-08T15:48:00.695Z,9.57
2022-12-08T15:53:02.775Z,9.52
2022-12-08T15:58:51.841Z,9.50
2022-12-08T16:04:09.393Z,9.68
2022-12-08T16:09:00.475Z,9.27
2022-12-08T16:14:47.375Z,7.70
2022-12-08T16:19:33.554Z,8.38
2022-12-08T16:24:35.314Z,9.60
2022-12-08T16:29:37.114Z,9.13
2022-12-08T16:34:39.050Z,8.88
2022-12-08T16:39:45.540Z,9.40
2022-12-08T16:44:47.662Z,10.65
2022-12-08T16:49:49.448Z,9.80
2022-12-08T16:54:51.282Z,9.80
2022-12-08T16:59:53.005Z,11.05
2022-12-08T17:04:54.855Z,11.27
2022-12-08T17:09:56.963Z,11.30
2022-12-08T17:14:58.724Z,10.25
2022-12-08T17:20:00.452Z,10.57
2022-12-08T17:25:02.869Z,11.00
2022-12-08T17:30:06.428Z,11.20
2022-12-08T17:35:09.052Z,11.70
2022-12-08T17:40:11.634Z,10.15
2022-12-08T17:45:13.441Z,9.75
2022-12-08T17:50:15.208Z,10.00
2022-12-08T17:55:17.495Z,10.85
2022-12-08T18:00:19.458Z,10.75
2022-12-08T18:05:21.230Z,10.88
2022-12-08T18:10:22.990Z,10.98
2022-12-08T18:15:26.065Z,11.00
2022-12-08T18:20:27.881Z,10.20
2022-12-08T18:25:29.594Z,11.35
2022-12-08T18:30:31.501Z,10.20
2022-12-08T18:35:33.674Z,9.85
2022-12-08T18:40:35.430Z,10.13
2022-12-08T18:45:38.871Z,10.20
2022-12-08T18:50:44.719Z,9.45
2022-12-08T18:55:47.232Z,10.00
2022-12-08T19:00:48.963Z,9.82
2022-12-08T19:05:50.734Z,9.35
2022-12-08T19:10:52.462Z,9.48
2022-12-08T19:15:54.647Z,9.45
2022-12-08T19:20:56.945Z,9.55
2022-12-08T19:25:58.851Z,9.60
2022-12-08T19:31:04.648Z,10.25
2022-12-08T19:36:13.957Z,10.77
2022-12-08T19:41:34.494Z,11.95
2022-12-08T19:46:40.358Z,12.10
2022-12-08T19:51:42.399Z,11.88
2022-12-08T19:56:44.166Z,13.00
2022-12-08T20:01:48.286Z,12.20
2022-12-08T20:06:51.356Z,13.23
2022-12-08T20:11:54.748Z,12.93
2022-12-08T20:16:56.622Z,12.45
2022-12-08T20:21:58.356Z,13.18
2022-12-08T20:27:00.131Z,14.60
2022-12-08T20:32:01.991Z,14.52
2022-12-08T20:37:03.893Z,14.43
2022-12-08T20:42:05.747Z,14.60
2022-12-08T20:47:07.704Z,14.27
2022-12-08T20:52:09.743Z,15.38
2022-12-08T20:57:11.650Z,15.48
2022-12-08T21:02:13.692Z,16.20
2022-12-08T21:07:15.800Z,17.75
2022-12-08T21:12:17.593Z,16.35
2022-12-08T21:17:19.653Z,17.10
2022-12-08T21:22:21.732Z,17.92
2022-12-08T21:27:23.676Z,18.42
2022-12-08T21:32:30.057Z,17.60
2022-12-08T21:37:33.172Z,18.27
2022-12-08T21:42:43.959Z,18.80
2022-12-08T21:47:47.696Z,20.15
2022-12-08T21:52:50.368Z,19.48
2022-12-08T21:57:52.201Z,19.65
2022-12-08T22:02:54.277Z,19.67
2022-12-08T22:07:56.402Z,20.92
2022-12-08T22:12:58.269Z,19.15
2022-12-08T22:18:00.289Z,22.30
2022-12-08T22:23:02.694Z,20.17
2022-12-08T22:28:05.077Z,20.10
2022-12-08T22:33:06.878Z,19.55
2022-12-08T22:38:08.938Z,19.75
2022-12-08T22:43:10.676Z,20.08
2022-12-08T22:48:12.550Z,19.30
2022-12-08T22:53:14.468Z,20.67
2022-12-08T22:58:16.370Z,20.55
2022-12-08T23:03:18.332Z,20.95
2022-12-08T23:08:20.572Z,20.25
2022-12-08T23:13:22.883Z,19.50
2022-12-08T23:18:24.847Z,21.27
2022-12-08T23:23:26.797Z,20.08
2022-12-08T23:28:28.844Z,20.65
2022-12-08T23:33:31.675Z,21.55
2022-12-08T23:38:33.999Z,21.80
2022-12-08T23:43:36.134Z,22.60
2022-12-08T23:48:38.079Z,24.50
2022-12-08T23:53:40.604Z,22.98
2022-12-08T23:58:43.619Z,25.60
